createdAt,value
2022-11-13T00:02:13.369Z,102929.92
2022-11-13T00:06:31.093Z,102929.65
2022-11-13T00:10:48.842Z,102929.08
2022-11-13T00:15:07.577Z,102931.34
2022-11-13T00:19:25.391Z,102927.30
2022-11-13T00:23:43.368Z,102933.98
2022-11-13T00:28:14.865Z,102928.64
2022-11-13T00:32:32.399Z,102922.98
2022-11-13T00:36:50.298Z,102928.14
2022-11-13T00:41:08.324Z,102919.68
2022-11-13T00:45:26.254Z,102911.10
2022-11-13T00:49:44.376Z,102902.29
2022-11-13T00:54:02.172Z,102905.95
2022-11-13T00:58:20.062Z,102903.63
2022-11-13T01:02:37.892Z,102902.05
2022-11-13T01:06:56.371Z,102903.41
2022-11-13T01:11:16.255Z,102904.26
2022-11-13T01:15:34.525Z,102899.80
2022-11-13T01:19:52.240Z,102901.65
2022-11-13T01:24:24.529Z,102902.86
2022-11-13T01:29:00.900Z,102893.02
2022-11-13T01:32:20.748Z,102893.38
2022-11-13T01:36:38.595Z,102897.92
2022-11-13T01:40:56.522Z,102906.63
2022-11-13T01:45:33.069Z,102898.34
2022-11-13T01:49:53.381Z,102903.14
2022-11-13T01:54:13.407Z,102900.02
2022-11-13T01:58:47.179Z,102899.67
2022-11-13T02:03:05.414Z,102896.56
2022-11-13T02:07:37.138Z,102890.67
2022-11-13T02:11:55.269Z,102888.88
2022-11-13T02:16:27.467Z,102886.05
2022-11-13T02:21:05.959Z,102886.27
2022-11-13T02:25:25.478Z,102891.57
2022-11-13T02:29:57.246Z,102892.35
2022-11-13T02:34:15.034Z,102887.55
2022-11-13T02:38:33.708Z,102885.96
2022-11-13T02:42:51.751Z,102885.27
2022-11-13T02:47:09.486Z,102885.75
2022-11-13T02:51:27.249Z,102878.70
2022-11-13T02:55:45.171Z,102881.43
2022-11-13T03:00:07.868Z,102892.38
2022-11-13T03:04:38.562Z,102880.98
2022-11-13T03:09:20.157Z,102877.11
2022-11-13T03:13:38.234Z,102885.61
2022-11-13T03:17:56.301Z,102884.36
2022-11-13T03:22:14.476Z,102879.61
2022-11-13T03:26:31.985Z,102886.48
2022-11-13T03:30:49.795Z,102885.97
2022-11-13T03:35:07.886Z,102873.15
2022-11-13T03:39:25.625Z,102878.77
2022-11-13T03:43:43.695Z,102888.79
2022-11-13T03:48:01.691Z,102878.91
2022-11-13T03:52:19.659Z,102880.09
2022-11-13T03:56:37.282Z,102884.96
2022-11-13T04:00:55.915Z,102879.48
2022-11-13T04:05:17.429Z,102881.20
2022-11-13T04:09:37.473Z,102885.93
2022-11-13T04:13:55.529Z,102879.38
2022-11-13T04:18:13.541Z,102881.60
2022-11-13T04:22:31.684Z,102875.92
2022-11-13T04:26:49.244Z,102874.29
2022-11-13T04:31:07.189Z,102880.38
2022-11-13T04:35:24.878Z,102882.79
2022-11-13T04:39:42.799Z,102879.05
2022-11-13T04:44:00.358Z,102884.33
2022-11-13T04:48:18.061Z,102886.73
2022-11-13T04:52:35.675Z,102879.18
2022-11-13T04:56:53.646Z,102880.70
2022-11-13T05:01:11.579Z,102890.04
2022-11-13T05:05:30.133Z,102885.50
2022-11-13T05:09:47.922Z,102884.48
2022-11-13T05:14:06.296Z,102892.68
2022-11-13T05:18:25.657Z,102896.94
2022-11-13T05:22:44.425Z,102894.02
2022-11-13T05:27:01.862Z,102894.02
2022-11-13T05:31:20.016Z,102892.98
2022-11-13T05:35:38.104Z,102901.39
2022-11-13T05:39:56.410Z,102899.26
2022-11-13T05:44:14.294Z,102902.72
2022-11-13T05:48:32.305Z,102905.41
2022-11-13T05:52:50.195Z,102901.61
2022-11-13T05:57:08.332Z,102910.27
2022-11-13T06:01:28.432Z,102914.54
2022-11-13T06:05:46.361Z,102912.88
2022-11-13T06:10:04.564Z,102916.08
2022-11-13T06:14:22.601Z,102917.52
2022-11-13T06:18:41.461Z,102911.23
2022-11-13T06:23:02.161Z,102924.41
2022-11-13T06:26:37.278Z,102924.21
2022-11-13T06:31:19.914Z,102923.11
2022-11-13T06:35:49.201Z,102936.85
2022-11-13T06:39:22.142Z,102938.42
2022-11-13T06:43:48.793Z,102943.63
2022-11-13T06:48:12.569Z,102945.52
2022-11-13T06:51:51.401Z,102939.57
2022-11-13T06:55:27.103Z,102942.37
2022-11-13T06:59:08.275Z,102949.80
2022-11-13T07:03:28.563Z,102946.03
2022-11-13T07:12:20.797Z,102943.33
2022-11-13T07:17:09.680Z,102941.92
2022-11-13T07:20:46.542Z,102946.69
2022-11-13T07:24:21.827Z,102948.59
2022-11-13T07:27:57.027Z,102950.77
2022-11-13T07:32:16.614Z,102953.99
2022-11-13T07:36:49.790Z,102958.73
2022-11-13T07:41:12.072Z,102961.72
2022-11-13T07:44:54.575Z,102963.16
2022-11-13T07:48:26.154Z,102959.48
2022-11-13T07:52:51.847Z,102963.67
2022-11-13T07:56:45.559Z,102960.91
2022-11-13T08:00:10.746Z,102956.06
2022-11-13T08:03:45.856Z,102962.29
2022-11-13T08:07:21.349Z,102966.81
2022-11-13T08:16:17.343Z,102963.71
2022-11-13T08:20:36.590Z,102961.52
2022-11-13T08:25:01.132Z,102960.88
2022-11-13T08:28:35.014Z,102961.39
2022-11-13T08:32:18.750Z,102963.11
2022-11-13T08:36:01.415Z,102963.77
2022-11-13T08:40:35.632Z,102969.73
2022-11-13T08:44:56.362Z,102971.10
2022-11-13T08:48:32.533Z,102976.64
2022-11-13T08:52:56.440Z,102980.60
2022-11-13T08:57:30.391Z,102976.66
2022-11-13T09:01:11.990Z,102973.75
2022-11-13T09:04:47.129Z,102981.41
2022-11-13T09:09:10.192Z,102984.14
2022-11-13T09:12:44.526Z,102988.28
2022-11-13T09:17:05.492Z,102984.17
2022-11-13T09:21:25.573Z,102975.48
2022-11-13T09:25:51.477Z,102979.80
2022-11-13T09:29:23.612Z,102978.06
2022-11-13T09:33:01.277Z,102978.00
2022-11-13T09:37:24.662Z,102970.27
2022-11-13T09:41:58.450Z,102964.39
2022-11-13T09:51:13.237Z,102956.73
2022-11-13T09:55:36.993Z,102954.20
2022-11-13T10:00:14.109Z,102949.13
2022-11-13T10:04:52.241Z,102952.35
2022-11-13T10:09:20.079Z,102953.68
2022-11-13T10:13:58.931Z,102948.67
2022-11-13T10:18:22.890Z,102944.70
2022-11-13T10:22:42.814Z,102935.15
2022-11-13T10:26:22.028Z,102930.86
2022-11-13T13:42:56.242Z,102829.92
2022-11-13T13:46:22.153Z,102827.09
2022-11-13T13:50:54.150Z,102825.97
2022-11-13T13:55:16.995Z,102812.71
2022-11-13T13:59:36.655Z,102819.80
2022-11-13T14:04:13.418Z,102827.31
2022-11-13T14:08:31.559Z,102816.16
2022-11-13T14:12:49.794Z,102811.91
2022-11-13T14:17:25.571Z,102813.16
2022-11-13T14:21:44.604Z,102819.95
2022-11-13T14:26:03.642Z,102820.68
2022-11-13T14:30:25.920Z,102824.52
2022-11-13T14:34:45.761Z,102821.58
2022-11-13T14:39:04.418Z,102823.27
2022-11-13T14:43:34.818Z,102821.80
2022-11-13T14:48:20.604Z,102816.08
2022-11-13T14:52:38.131Z,102806.48
2022-11-13T14:56:55.742Z,102808.10
2022-11-13T15:01:17.921Z,102820.50
2022-11-13T15:05:35.490Z,102821.27
2022-11-13T15:09:53.596Z,102821.02
2022-11-13T15:14:12.620Z,102822.30
2022-11-13T15:18:30.601Z,102824.19
2022-11-13T15:22:48.279Z,102821.71
2022-11-13T15:27:22.565Z,102821.51
2022-11-13T15:30:43.678Z,102817.59
2022-11-13T15:35:18.727Z,102819.64
2022-11-13T15:39:36.685Z,102817.75
2022-11-13T15:43:55.574Z,102824.98
2022-11-13T15:48:13.894Z,102820.37
2022-11-13T15:52:35.401Z,102815.08
2022-11-13T15:56:53.535Z,102822.83
2022-11-13T16:01:15.096Z,102827.13
2022-11-13T16:05:33.013Z,102830.02
2022-11-13T16:09:50.945Z,102831.06
2022-11-13T16:14:24.982Z,102830.20
2022-11-13T16:18:43.121Z,102827.89
2022-11-13T16:23:01.210Z,102827.58
2022-11-13T16:27:34.172Z,102829.35
2022-11-13T16:31:52.718Z,102829.31
2022-11-13T16:36:18.033Z,102832.25
2022-11-13T16:40:35.932Z,102826.05
2022-11-13T16:44:53.599Z,102825.33
2022-11-13T16:49:20.443Z,102827.45
2022-11-13T16:53:38.217Z,102827.13
2022-11-13T16:57:56.180Z,102821.36
2022-11-13T17:02:15.604Z,102826.61
2022-11-13T17:06:34.699Z,102825.33
2022-11-13T17:10:57.015Z,102827.34
2022-11-13T17:15:14.743Z,102825.40
2022-11-13T17:19:33.146Z,102820.95
2022-11-13T17:23:55.385Z,102821.63
2022-11-13T17:28:16.720Z,102818.27
2022-11-13T17:32:34.298Z,102817.02
2022-11-13T17:36:52.877Z,102814.34
2022-11-13T17:41:11.465Z,102813.20
2022-11-13T17:45:29.704Z,102817.39
2022-11-13T17:49:47.065Z,102813.13
2022-11-13T17:54:04.960Z,102813.44
2022-11-13T17:58:23.340Z,102816.51
2022-11-13T18:02:41.220Z,102807.39
2022-11-13T18:06:58.829Z,102813.58
2022-11-13T18:11:21.622Z,102819.15
2022-11-13T18:15:40.436Z,102811.73
2022-11-13T18:20:01.728Z,102820.14
2022-11-13T18:24:20.489Z,102819.23
2022-11-13T18:28:39.618Z,102818.35
2022-11-13T18:33:16.634Z,102819.91
2022-11-13T18:36:36.275Z,102815.33
2022-11-13T18:41:12.480Z,102822.80
2022-11-13T18:45:30.302Z,102816.30
2022-11-13T18:49:49.012Z,102816.40
2022-11-13T18:54:10.054Z,102814.92
2022-11-13T18:58:28.975Z,102812.95
2022-11-13T19:02:49.996Z,102813.78
2022-11-13T19:07:09.195Z,102812.73
2022-11-13T19:11:27.867Z,102810.27
2022-11-13T19:15:46.100Z,102806.90
2022-11-13T19:20:04.566Z,102809.73
2022-11-13T19:24:22.779Z,102814.69
2022-11-13T19:28:40.948Z,102809.77
2022-11-13T19:32:59.456Z,102813.93
2022-11-13T19:37:31.284Z,102810.77
2022-11-13T19:41:51.455Z,102807.98
2022-11-13T19:45:28.236Z,102807.66
2022-11-13T19:49:46.014Z,102807.45
2022-11-13T19:54:04.303Z,102802.31
2022-11-13T19:58:22.021Z,102802.89
2022-11-13T20:02:40.060Z,102799.39
2022-11-13T20:06:57.833Z,102792.39
2022-11-13T20:11:15.904Z,102796.53
2022-11-13T20:15:33.561Z,102798.09
2022-11-13T20:19:51.482Z,102793.32
2022-11-13T20:24:09.721Z,102794.91
2022-11-13T20:28:29.020Z,102793.65
2022-11-13T20:32:47.473Z,102796.15
2022-11-13T20:37:05.280Z,102795.88
2022-11-13T20:41:27.573Z,102792.22
2022-11-13T20:45:45.295Z,102790.95
2022-11-13T20:50:03.436Z,102781.71
2022-11-13T20:54:21.156Z,102779.36
2022-11-13T20:58:39.996Z,102779.80
2022-11-13T21:02:58.087Z,102775.31
2022-11-13T21:07:16.394Z,102772.23
2022-11-13T21:11:33.975Z,102772.21
2022-11-13T21:15:51.669Z,102770.51
2022-11-13T21:20:09.937Z,102767.58
2022-11-13T21:24:28.350Z,102770.05
2022-11-13T21:28:47.505Z,102764.95
2022-11-13T21:33:05.421Z,102764.77
2022-11-13T21:37:23.277Z,102762.86
2022-11-13T21:41:41.989Z,102762.34
2022-11-13T21:46:03.790Z,102758.30
2022-11-13T21:50:23.932Z,102758.33
2022-11-13T21:53:59.474Z,102753.27
2022-11-13T21:58:17.996Z,102759.04
2022-11-13T22:02:35.917Z,102761.42
2022-11-13T22:07:07.879Z,102759.08
2022-11-13T22:11:27.525Z,102748.49
2022-11-13T22:15:45.380Z,102743.40
2022-11-13T22:20:03.224Z,102742.00
2022-11-13T22:24:20.782Z,102739.82
2022-11-13T22:28:39.819Z,102729.34
2022-11-13T22:32:57.584Z,102728.55
2022-11-13T22:37:15.265Z,102728.38
2022-11-13T22:41:34.838Z,102718.89
2022-11-13T22:45:52.337Z,102722.34
2022-11-13T22:50:10.179Z,102714.40
2022-11-13T22:54:28.354Z,102718.06
2022-11-13T22:58:46.762Z,102708.54
2022-11-13T23:03:04.585Z,102704.85
2022-11-13T23:07:36.599Z,102704.07
2022-11-13T23:11:54.661Z,102700.86
2022-11-13T23:16:13.045Z,102698.91
2022-11-13T23:20:44.364Z,102695.90
2022-11-13T23:25:02.163Z,102686.96
2022-11-13T23:29:20.035Z,102687.34
2022-11-13T23:33:38.635Z,102690.73
2022-11-13T23:37:56.346Z,102681.98
2022-11-13T23:42:53.625Z,102681.27
2022-11-13T23:47:19.623Z,102671.23
2022-11-13T23:51:37.232Z,102675.29
2022-11-13T23:55:54.740Z,102662.77
